sensor_id;sensor_type;location;lat;lon;timestamp;P1;durP1;ratioP1;P2;durP2;ratioP2
5752;SDS011;2901;42.140;24.760;2023-02-28T00:02:13;7.07;;;6.47;;
5752;SDS011;2901;42.140;24.760;2023-02-28T00:04:38;9.60;;;7.00;;
5752;SDS011;2901;42.140;24.760;2023-02-28T00:07:03;9.02;;;7.30;;
5752;SDS011;2901;42.140;24.760;2023-02-28T00:09:29;6.65;;;6.10;;
5752;SDS011;2901;42.140;24.760;2023-02-28T00:11:54;10.85;;;7.03;;
5752;SDS011;2901;42.140;24.760;2023-02-28T00:14:19;12.15;;;7.30;;
5752;SDS011;2901;42.140;24.760;2023-02-28T00:16:45;6.90;;;6.20;;
5752;SDS011;2901;42.140;24.760;2023-02-28T00:19:10;11.65;;;5.80;;
5752;SDS011;2901;42.140;24.760;2023-02-28T00:21:38;9.65;;;5.95;;
5752;SDS011;2901;42.140;24.760;2023-02-28T00:24:05;8.63;;;6.05;;
5752;SDS011;2901;42.140;24.760;2023-02-28T00:26:31;7.20;;;5.68;;
5752;SDS011;2901;42.140;24.760;2023-02-28T00:28:57;13.32;;;6.47;;
5752;SDS011;2901;42.140;24.760;2023-02-28T00:31:22;9.85;;;6.82;;
5752;SDS011;2901;42.140;24.760;2023-02-28T00:33:47;8.57;;;6.60;;
5752;SDS011;2901;42.140;24.760;2023-02-28T00:36:13;10.23;;;6.63;;
5752;SDS011;2901;42.140;24.760;2023-02-28T00:38:39;8.13;;;6.72;;
5752;SDS011;2901;42.140;24.760;2023-02-28T00:41:05;8.77;;;7.38;;
5752;SDS011;2901;42.140;24.760;2023-02-28T00:43:36;12.57;;;6.68;;
5752;SDS011;2901;42.140;24.760;2023-02-28T00:46:02;9.52;;;6.55;;
5752;SDS011;2901;42.140;24.760;2023-02-28T00:48:28;7.95;;;7.20;;
5752;SDS011;2901;42.140;24.760;2023-02-28T00:50:54;7.95;;;6.20;;
5752;SDS011;2901;42.140;24.760;2023-02-28T00:53:20;6.95;;;6.22;;
5752;SDS011;2901;42.140;24.760;2023-02-28T00:55:46;8.05;;;6.90;;
5752;SDS011;2901;42.140;24.760;2023-02-28T00:58:12;9.75;;;7.43;;
5752;SDS011;2901;42.140;24.760;2023-02-28T01:00:38;9.27;;;6.22;;
5752;SDS011;2901;42.140;24.760;2023-02-28T01:03:03;8.25;;;6.43;;
5752;SDS011;2901;42.140;24.760;2023-02-28T01:05:28;7.15;;;6.35;;
5752;SDS011;2901;42.140;24.760;2023-02-28T01:07:54;9.35;;;6.03;;
5752;SDS011;2901;42.140;24.760;2023-02-28T01:10:19;9.65;;;7.00;;
5752;SDS011;2901;42.140;24.760;2023-02-28T01:12:45;10.07;;;5.95;;
5752;SDS011;2901;42.140;24.760;2023-02-28T01:15:11;7.03;;;6.05;;
5752;SDS011;2901;42.140;24.760;2023-02-28T01:17:36;6.85;;;6.20;;
5752;SDS011;2901;42.140;24.760;2023-02-28T01:20:02;14.80;;;6.80;;
5752;SDS011;2901;42.140;24.760;2023-02-28T01:22:28;10.50;;;7.20;;
5752;SDS011;2901;42.140;24.760;2023-02-28T01:24:53;11.60;;;6.28;;
5752;SDS011;2901;42.140;24.760;2023-02-28T01:27:19;12.05;;;6.18;;
5752;SDS011;2901;42.140;24.760;2023-02-28T01:29:44;9.55;;;5.70;;
5752;SDS011;2901;42.140;24.760;2023-02-28T01:32:10;9.35;;;5.63;;
5752;SDS011;2901;42.140;24.760;2023-02-28T01:34:35;13.68;;;5.28;;
5752;SDS011;2901;42.140;24.760;2023-02-28T01:37:01;8.40;;;5.28;;
5752;SDS011;2901;42.140;24.760;2023-02-28T01:39:26;8.00;;;4.65;;
5752;SDS011;2901;42.140;24.760;2023-02-28T01:41:52;9.55;;;5.10;;
5752;SDS011;2901;42.140;24.760;2023-02-28T01:47:20;12.30;;;5.80;;
5752;SDS011;2901;42.140;24.760;2023-02-28T01:49:47;11.93;;;5.90;;
5752;SDS011;2901;42.140;24.760;2023-02-28T01:52:13;11.57;;;5.65;;
5752;SDS011;2901;42.140;24.760;2023-02-28T01:54:43;12.55;;;6.18;;
5752;SDS011;2901;42.140;24.760;2023-02-28T01:57:14;9.77;;;6.20;;
5752;SDS011;2901;42.140;24.760;2023-02-28T01:59:54;8.25;;;5.60;;
5752;SDS011;2901;42.140;24.760;2023-02-28T02:02:32;11.55;;;5.57;;
5752;SDS011;2901;42.140;24.760;2023-02-28T02:05:03;15.25;;;6.32;;
5752;SDS011;2901;42.140;24.760;2023-02-28T02:07:32;7.32;;;5.45;;
5752;SDS011;2901;42.140;24.760;2023-02-28T02:24:19;18.23;;;7.35;;
5752;SDS011;2901;42.140;24.760;2023-02-28T02:37:36;8.93;;;7.00;;
5752;SDS011;2901;42.140;24.760;2023-02-28T02:48:00;10.68;;;7.68;;
5752;SDS011;2901;42.140;24.760;2023-02-28T02:50:31;12.55;;;7.40;;
5752;SDS011;2901;42.140;24.760;2023-02-28T02:53:01;15.88;;;8.25;;
5752;SDS011;2901;42.140;24.760;2023-02-28T02:55:28;19.02;;;8.25;;
5752;SDS011;2901;42.140;24.760;2023-02-28T02:57:59;12.80;;;8.35;;
5752;SDS011;2901;42.140;24.760;2023-02-28T03:00:30;16.02;;;8.43;;
5752;SDS011;2901;42.140;24.760;2023-02-28T03:03:00;11.45;;;8.57;;
5752;SDS011;2901;42.140;24.760;2023-02-28T03:05:28;14.00;;;8.13;;
5752;SDS011;2901;42.140;24.760;2023-02-28T03:07:59;12.63;;;9.13;;
5752;SDS011;2901;42.140;24.760;2023-02-28T03:12:55;14.07;;;9.25;;
5752;SDS011;2901;42.140;24.760;2023-02-28T03:15:40;14.55;;;9.55;;
5752;SDS011;2901;42.140;24.760;2023-02-28T03:18:14;12.30;;;8.93;;
5752;SDS011;2901;42.140;24.760;2023-02-28T03:20:54;12.05;;;9.68;;
5752;SDS011;2901;42.140;24.760;2023-02-28T03:23:34;14.95;;;9.57;;
5752;SDS011;2901;42.140;24.760;2023-02-28T03:26:18;13.63;;;9.77;;
5752;SDS011;2901;42.140;24.760;2023-02-28T03:34:27;19.90;;;9.95;;
5752;SDS011;2901;42.140;24.760;2023-02-28T03:36:59;11.48;;;9.85;;
5752;SDS011;2901;42.140;24.760;2023-02-28T03:39:34;13.80;;;10.25;;
5752;SDS011;2901;42.140;24.760;2023-02-28T03:42:11;16.15;;;10.25;;
5752;SDS011;2901;42.140;24.760;2023-02-28T03:44:42;17.08;;;10.40;;
5752;SDS011;2901;42.140;24.760;2023-02-28T03:47:24;12.25;;;11.13;;
5752;SDS011;2901;42.140;24.760;2023-02-28T03:49:54;15.05;;;10.43;;
5752;SDS011;2901;42.140;24.760;2023-02-28T03:52:33;20.25;;;10.95;;
5752;SDS011;2901;42.140;24.760;2023-02-28T03:55:02;14.10;;;11.27;;
5752;SDS011;2901;42.140;24.760;2023-02-28T04:00:03;16.42;;;11.90;;
5752;SDS011;2901;42.140;24.760;2023-02-28T04:02:34;11.27;;;9.82;;
5752;SDS011;2901;42.140;24.760;2023-02-28T04:05:00;15.13;;;11.07;;
5752;SDS011;2901;42.140;24.760;2023-02-28T04:07:28;16.27;;;10.65;;
5752;SDS011;2901;42.140;24.760;2023-02-28T04:09:54;16.65;;;10.90;;
5752;SDS011;2901;42.140;24.760;2023-02-28T04:12:20;20.23;;;12.55;;
5752;SDS011;2901;42.140;24.760;2023-02-28T04:14:48;15.35;;;12.02;;
5752;SDS011;2901;42.140;24.760;2023-02-28T04:17:13;15.88;;;11.00;;
5752;SDS011;2901;42.140;24.760;2023-02-28T04:19:39;18.67;;;11.77;;
5752;SDS011;2901;42.140;24.760;2023-02-28T04:22:04;15.98;;;11.35;;
5752;SDS011;2901;42.140;24.760;2023-02-28T04:24:29;14.98;;;9.55;;
5752;SDS011;2901;42.140;24.760;2023-02-28T04:26:56;9.68;;;8.80;;
5752;SDS011;2901;42.140;24.760;2023-02-28T04:29:29;11.27;;;9.00;;
5752;SDS011;2901;42.140;24.760;2023-02-28T04:31:59;12.73;;;9.07;;
5752;SDS011;2901;42.140;24.760;2023-02-28T04:34:26;15.93;;;10.05;;
5752;SDS011;2901;42.140;24.760;2023-02-28T04:36:54;10.50;;;9.45;;
5752;SDS011;2901;42.140;24.760;2023-02-28T04:39:20;14.13;;;10.15;;
5752;SDS011;2901;42.140;24.760;2023-02-28T04:41:46;10.68;;;9.43;;
5752;SDS011;2901;42.140;24.760;2023-02-28T04:44:12;12.07;;;9.90;;
5752;SDS011;2901;42.140;24.760;2023-02-28T04:46:38;13.18;;;10.25;;
5752;SDS011;2901;42.140;24.760;2023-02-28T04:49:04;11.60;;;10.40;;
5752;SDS011;2901;42.140;24.760;2023-02-28T04:51:29;11.95;;;10.10;;
5752;SDS011;2901;42.140;24.760;2023-02-28T04:53:55;16.00;;;10.23;;
5752;SDS011;2901;42.140;24.760;2023-02-28T04:56:20;16.45;;;11.23;;
5752;SDS011;2901;42.140;24.760;2023-02-28T04:58:46;20.35;;;12.20;;
5752;SDS011;2901;42.140;24.760;2023-02-28T05:01:25;14.40;;;12.20;;
5752;SDS011;2901;42.140;24.760;2023-02-28T05:03:54;17.00;;;11.50;;
5752;SDS011;2901;42.140;24.760;2023-02-28T05:06:21;16.80;;;11.98;;
5752;SDS011;2901;42.140;24.760;2023-02-28T05:08:48;14.70;;;10.88;;
5752;SDS011;2901;42.140;24.760;2023-02-28T05:11:16;17.67;;;10.85;;
5752;SDS011;2901;42.140;24.760;2023-02-28T05:13:46;12.82;;;9.68;;
5752;SDS011;2901;42.140;24.760;2023-02-28T05:16:12;14.20;;;10.00;;
5752;SDS011;2901;42.140;24.760;2023-02-28T05:18:38;13.32;;;10.20;;
5752;SDS011;2901;42.140;24.760;2023-02-28T05:21:03;11.57;;;10.15;;
5752;SDS011;2901;42.140;24.760;2023-02-28T05:23:29;12.10;;;9.57;;
5752;SDS011;2901;42.140;24.760;2023-02-28T05:25:54;16.05;;;9.88;;
5752;SDS011;2901;42.140;24.760;2023-02-28T05:28:20;14.18;;;10.10;;
5752;SDS011;2901;42.140;24.760;2023-02-28T05:30:46;11.10;;;8.88;;
5752;SDS011;2901;42.140;24.760;2023-02-28T05:33:12;13.57;;;10.38;;
5752;SDS011;2901;42.140;24.760;2023-02-28T05:35:39;12.90;;;10.00;;
5752;SDS011;2901;42.140;24.760;2023-02-28T05:38:05;13.07;;;10.75;;
5752;SDS011;2901;42.140;24.760;2023-02-28T05:40:31;18.40;;;9.80;;
5752;SDS011;2901;42.140;24.760;2023-02-28T05:42:57;23.60;;;10.20;;
5752;SDS011;2901;42.140;24.760;2023-02-28T05:45:22;14.65;;;10.18;;
5752;SDS011;2901;42.140;24.760;2023-02-28T05:47:47;19.23;;;9.68;;
5752;SDS011;2901;42.140;24.760;2023-02-28T05:50:14;19.13;;;11.00;;
5752;SDS011;2901;42.140;24.760;2023-02-28T05:52:40;25.10;;;11.73;;
5752;SDS011;2901;42.140;24.760;2023-02-28T05:55:05;14.43;;;10.80;;
5752;SDS011;2901;42.140;24.760;2023-02-28T05:57:31;14.57;;;10.95;;
5752;SDS011;2901;42.140;24.760;2023-02-28T05:59:56;12.43;;;10.05;;
5752;SDS011;2901;42.140;24.760;2023-02-28T06:02:22;17.58;;;10.45;;
5752;SDS011;2901;42.140;24.760;2023-02-28T06:04:47;20.88;;;11.20;;
5752;SDS011;2901;42.140;24.760;2023-02-28T06:07:12;12.55;;;11.02;;
5752;SDS011;2901;42.140;24.760;2023-02-28T06:09:38;16.77;;;10.95;;
5752;SDS011;2901;42.140;24.760;2023-02-28T06:12:04;19.02;;;12.13;;
5752;SDS011;2901;42.140;24.760;2023-02-28T06:14:32;18.65;;;10.63;;
5752;SDS011;2901;42.140;24.760;2023-02-28T06:16:59;13.43;;;10.32;;
5752;SDS011;2901;42.140;24.760;2023-02-28T06:19:25;15.85;;;11.48;;
5752;SDS011;2901;42.140;24.760;2023-02-28T06:21:51;15.15;;;11.18;;
5752;SDS011;2901;42.140;24.760;2023-02-28T06:24:18;11.45;;;10.35;;
5752;SDS011;2901;42.140;24.760;2023-02-28T06:26:48;14.27;;;11.25;;
5752;SDS011;2901;42.140;24.760;2023-02-28T06:29:13;20.25;;;12.65;;
5752;SDS011;2901;42.140;24.760;2023-02-28T06:31:43;17.70;;;11.63;;
5752;SDS011;2901;42.140;24.760;2023-02-28T06:34:10;13.40;;;12.20;;
5752;SDS011;2901;42.140;24.760;2023-02-28T06:36:37;15.43;;;11.55;;
5752;SDS011;2901;42.140;24.760;2023-02-28T06:39:06;19.73;;;11.88;;
5752;SDS011;2901;42.140;24.760;2023-02-28T06:41:32;20.52;;;11.05;;
5752;SDS011;2901;42.140;24.760;2023-02-28T06:44:02;11.95;;;10.80;;
5752;SDS011;2901;42.140;24.760;2023-02-28T06:46:29;16.35;;;11.23;;
5752;SDS011;2901;42.140;24.760;2023-02-28T06:48:54;18.35;;;11.45;;
5752;SDS011;2901;42.140;24.760;2023-02-28T06:51:20;18.92;;;12.52;;
5752;SDS011;2901;42.140;24.760;2023-02-28T06:53:47;12.73;;;11.20;;
5752;SDS011;2901;42.140;24.760;2023-02-28T06:56:13;19.40;;;11.73;;
5752;SDS011;2901;42.140;24.760;2023-02-28T06:58:39;18.65;;;12.13;;
5752;SDS011;2901;42.140;24.760;2023-02-28T07:01:06;18.67;;;12.82;;
5752;SDS011;2901;42.140;24.760;2023-02-28T07:03:32;18.85;;;12.75;;
5752;SDS011;2901;42.140;24.760;2023-02-28T07:05:58;18.02;;;12.77;;
5752;SDS011;2901;42.140;24.760;2023-02-28T07:08:24;13.25;;;11.73;;
5752;SDS011;2901;42.140;24.760;2023-02-28T07:10:53;23.98;;;11.95;;
5752;SDS011;2901;42.140;24.760;2023-02-28T07:13:19;20.67;;;13.50;;
5752;SDS011;2901;42.140;24.760;2023-02-28T07:15:44;17.67;;;11.57;;
5752;SDS011;2901;42.140;24.760;2023-02-28T07:18:18;28.40;;;13.20;;
5752;SDS011;2901;42.140;24.760;2023-02-28T07:20:44;19.23;;;12.40;;
5752;SDS011;2901;42.140;24.760;2023-02-28T07:23:09;13.52;;;12.18;;
5752;SDS011;2901;42.140;24.760;2023-02-28T07:25:35;16.48;;;12.25;;
5752;SDS011;2901;42.140;24.760;2023-02-28T07:28:00;15.98;;;12.80;;
5752;SDS011;2901;42.140;24.760;2023-02-28T07:30:26;23.00;;;13.13;;
5752;SDS011;2901;42.140;24.760;2023-02-28T07:32:51;26.20;;;13.57;;
5752;SDS011;2901;42.140;24.760;2023-02-28T07:35:16;14.32;;;12.82;;
5752;SDS011;2901;42.140;24.760;2023-02-28T07:37:42;19.92;;;13.02;;
5752;SDS011;2901;42.140;24.760;2023-02-28T07:40:09;17.75;;;14.77;;
5752;SDS011;2901;42.140;24.760;2023-02-28T07:42:39;16.15;;;14.15;;
5752;SDS011;2901;42.140;24.760;2023-02-28T07:45:05;28.88;;;15.55;;
5752;SDS011;2901;42.140;24.760;2023-02-28T07:47:31;30.02;;;17.25;;
5752;SDS011;2901;42.140;24.760;2023-02-28T07:49:57;38.35;;;16.40;;
5752;SDS011;2901;42.140;24.760;2023-02-28T07:52:22;20.55;;;15.45;;
5752;SDS011;2901;42.140;24.760;2023-02-28T07:54:48;20.08;;;14.40;;
5752;SDS011;2901;42.140;24.760;2023-02-28T07:57:14;25.95;;;15.10;;
5752;SDS011;2901;42.140;24.760;2023-02-28T07:59:40;27.10;;;15.88;;
5752;SDS011;2901;42.140;24.760;2023-02-28T08:02:05;25.58;;;15.20;;
5752;SDS011;2901;42.140;24.760;2023-02-28T08:04:33;24.67;;;15.50;;
5752;SDS011;2901;42.140;24.760;2023-02-28T08:06:59;20.77;;;15.52;;
5752;SDS011;2901;42.140;24.760;2023-02-28T08:09:24;21.17;;;16.55;;
5752;SDS011;2901;42.140;24.760;2023-02-28T08:11:50;23.67;;;15.30;;
5752;SDS011;2901;42.140;24.760;2023-02-28T08:14:15;31.35;;;16.95;;
5752;SDS011;2901;42.140;24.760;2023-02-28T08:16:41;26.48;;;15.70;;
5752;SDS011;2901;42.140;24.760;2023-02-28T08:19:07;39.40;;;15.82;;
5752;SDS011;2901;42.140;24.760;2023-02-28T08:21:33;25.90;;;15.80;;
5752;SDS011;2901;42.140;24.760;2023-02-28T08:23:58;27.63;;;15.65;;
5752;SDS011;2901;42.140;24.760;2023-02-28T08:26:24;20.52;;;14.05;;
5752;SDS011;2901;42.140;24.760;2023-02-28T08:28:49;19.98;;;15.10;;
5752;SDS011;2901;42.140;24.760;2023-02-28T08:31:15;29.33;;;14.38;;
5752;SDS011;2901;42.140;24.760;2023-02-28T08:33:41;25.45;;;14.30;;
5752;SDS011;2901;42.140;24.760;2023-02-28T08:36:09;25.10;;;13.75;;
5752;SDS011;2901;42.140;24.760;2023-02-28T08:38:36;24.45;;;15.50;;
5752;SDS011;2901;42.140;24.760;2023-02-28T08:41:03;31.17;;;15.43;;
5752;SDS011;2901;42.140;24.760;2023-02-28T08:43:34;25.40;;;17.77;;
5752;SDS011;2901;42.140;24.760;2023-02-28T08:46:00;26.40;;;16.00;;
5752;SDS011;2901;42.140;24.760;2023-02-28T08:48:26;24.98;;;17.52;;
5752;SDS011;2901;42.140;24.760;2023-02-28T08:51:00;17.23;;;14.55;;
5752;SDS011;2901;42.140;24.760;2023-02-28T08:53:28;25.40;;;16.08;;
5752;SDS011;2901;42.140;24.760;2023-02-28T08:56:01;23.58;;;19.02;;
5752;SDS011;2901;42.140;24.760;2023-02-28T08:58:28;22.50;;;16.08;;
5752;SDS011;2901;42.140;24.760;2023-02-28T09:00:53;30.90;;;19.98;;
5752;SDS011;2901;42.140;24.760;2023-02-28T09:03:20;20.10;;;15.95;;
5752;SDS011;2901;42.140;24.760;2023-02-28T09:05:59;16.40;;;14.70;;
5752;SDS011;2901;42.140;24.760;2023-02-28T09:08:26;22.88;;;15.98;;
5752;SDS011;2901;42.140;24.760;2023-02-28T09:10:55;19.10;;;15.43;;
5752;SDS011;2901;42.140;24.760;2023-02-28T09:13:22;17.35;;;15.60;;
5752;SDS011;2901;42.140;24.760;2023-02-28T09:15:48;19.35;;;17.05;;
5752;SDS011;2901;42.140;24.760;2023-02-28T09:18:14;23.13;;;16.92;;
5752;SDS011;2901;42.140;24.760;2023-02-28T09:20:40;26.38;;;16.35;;
5752;SDS011;2901;42.140;24.760;2023-02-28T09:23:07;18.95;;;17.10;;
5752;SDS011;2901;42.140;24.760;2023-02-28T09:25:33;22.00;;;17.13;;
5752;SDS011;2901;42.140;24.760;2023-02-28T09:27:59;25.52;;;16.40;;
5752;SDS011;2901;42.140;24.760;2023-02-28T09:30:24;19.88;;;15.82;;
5752;SDS011;2901;42.140;24.760;2023-02-28T09:32:50;19.08;;;14.82;;
5752;SDS011;2901;42.140;24.760;2023-02-28T09:35:19;22.05;;;15.55;;
5752;SDS011;2901;42.140;24.760;2023-02-28T09:37:46;23.50;;;15.77;;
5752;SDS011;2901;42.140;24.760;2023-02-28T09:40:12;27.27;;;16.98;;
5752;SDS011;2901;42.140;24.760;2023-02-28T09:42:39;19.40;;;16.05;;
5752;SDS011;2901;42.140;24.760;2023-02-28T09:45:07;28.15;;;18.38;;
5752;SDS011;2901;42.140;24.760;2023-02-28T09:47:44;24.45;;;18.65;;
5752;SDS011;2901;42.140;24.760;2023-02-28T09:50:17;32.50;;;17.63;;
5752;SDS011;2901;42.140;24.760;2023-02-28T09:52:49;23.80;;;18.23;;
5752;SDS011;2901;42.140;24.760;2023-02-28T09:57:41;43.90;;;18.52;;
5752;SDS011;2901;42.140;24.760;2023-02-28T10:05:41;23.77;;;17.95;;
5752;SDS011;2901;42.140;24.760;2023-02-28T10:08:16;26.00;;;17.88;;
5752;SDS011;2901;42.140;24.760;2023-02-28T10:10:51;21.40;;;18.20;;
5752;SDS011;2901;42.140;24.760;2023-02-28T10:16:01;28.90;;;17.98;;
5752;SDS011;2901;42.140;24.760;2023-02-28T10:18:35;23.55;;;17.67;;
5752;SDS011;2901;42.140;24.760;2023-02-28T10:21:13;28.67;;;19.58;;
5752;SDS011;2901;42.140;24.760;2023-02-28T10:23:43;25.95;;;19.30;;
5752;SDS011;2901;42.140;24.760;2023-02-28T10:26:13;26.05;;;19.38;;
5752;SDS011;2901;42.140;24.760;2023-02-28T10:28:41;25.10;;;18.65;;
5752;SDS011;2901;42.140;24.760;2023-02-28T10:31:08;28.17;;;17.52;;
5752;SDS011;2901;42.140;24.760;2023-02-28T10:33:42;23.10;;;18.10;;
5752;SDS011;2901;42.140;24.760;2023-02-28T10:36:08;29.30;;;18.80;;
5752;SDS011;2901;42.140;24.760;2023-02-28T10:38:41;25.25;;;19.35;;
5752;SDS011;2901;42.140;24.760;2023-02-28T10:46:49;30.15;;;20.58;;
5752;SDS011;2901;42.140;24.760;2023-02-28T10:49:25;34.78;;;20.90;;
5752;SDS011;2901;42.140;24.760;2023-02-28T10:51:57;26.45;;;19.42;;
5752;SDS011;2901;42.140;24.760;2023-02-28T10:54:29;24.67;;;19.42;;
5752;SDS011;2901;42.140;24.760;2023-02-28T11:00:07;31.38;;;19.27;;
5752;SDS011;2901;42.140;24.760;2023-02-28T11:02:42;36.17;;;19.48;;
5752;SDS011;2901;42.140;24.760;2023-02-28T11:05:30;21.75;;;18.05;;
5752;SDS011;2901;42.140;24.760;2023-02-28T11:08:10;32.08;;;19.10;;
5752;SDS011;2901;42.140;24.760;2023-02-28T11:10:38;34.53;;;20.27;;
5752;SDS011;2901;42.140;24.760;2023-02-28T11:13:04;32.33;;;18.92;;
5752;SDS011;2901;42.140;24.760;2023-02-28T11:15:32;27.52;;;18.20;;
5752;SDS011;2901;42.140;24.760;2023-02-28T11:18:02;33.60;;;19.30;;
5752;SDS011;2901;42.140;24.760;2023-02-28T11:20:48;26.83;;;17.58;;
5752;SDS011;2901;42.140;24.760;2023-02-28T11:23:16;23.88;;;19.02;;
5752;SDS011;2901;42.140;24.760;2023-02-28T11:25:47;27.90;;;20.67;;
5752;SDS011;2901;42.140;24.760;2023-02-28T11:31:15;24.88;;;20.05;;
5752;SDS011;2901;42.140;24.760;2023-02-28T11:33:46;35.97;;;22.40;;
5752;SDS011;2901;42.140;24.760;2023-02-28T11:36:25;33.05;;;21.63;;
5752;SDS011;2901;42.140;24.760;2023-02-28T11:38:54;28.00;;;21.00;;
5752;SDS011;2901;42.140;24.760;2023-02-28T11:44:02;33.95;;;22.27;;
5752;SDS011;2901;42.140;24.760;2023-02-28T12:05:41;42.00;;;27.02;;
5752;SDS011;2901;42.140;24.760;2023-02-28T12:08:23;34.75;;;23.70;;
5752;SDS011;2901;42.140;24.760;2023-02-28T12:11:03;33.33;;;24.77;;
5752;SDS011;2901;42.140;24.760;2023-02-28T12:13:43;39.00;;;25.27;;
5752;SDS011;2901;42.140;24.760;2023-02-28T12:37:31;38.63;;;29.05;;
5752;SDS011;2901;42.140;24.760;2023-02-28T12:40:09;36.05;;;27.38;;
5752;SDS011;2901;42.140;24.760;2023-02-28T12:42:39;42.78;;;26.35;;
5752;SDS011;2901;42.140;24.760;2023-02-28T12:47:36;46.70;;;27.83;;
5752;SDS011;2901;42.140;24.760;2023-02-28T12:50:07;49.45;;;27.90;;
5752;SDS011;2901;42.140;24.760;2023-02-28T12:55:19;55.20;;;29.15;;
5752;SDS011;2901;42.140;24.760;2023-02-28T13:00:38;33.67;;;25.60;;
5752;SDS011;2901;42.140;24.760;2023-02-28T13:03:32;35.42;;;24.10;;
5752;SDS011;2901;42.140;24.760;2023-02-28T13:11:50;43.72;;;27.05;;
5752;SDS011;2901;42.140;24.760;2023-02-28T13:14:30;37.58;;;24.58;;
5752;SDS011;2901;42.140;24.760;2023-02-28T13:19:45;36.63;;;25.30;;
5752;SDS011;2901;42.140;24.760;2023-02-28T13:22:16;30.92;;;25.38;;
5752;SDS011;2901;42.140;24.760;2023-02-28T13:24:46;29.50;;;23.92;;
5752;SDS011;2901;42.140;24.760;2023-02-28T13:27:22;40.47;;;24.98;;
5752;SDS011;2901;42.140;24.760;2023-02-28T13:29:50;29.75;;;22.45;;
5752;SDS011;2901;42.140;24.760;2023-02-28T13:32:33;35.38;;;24.85;;
5752;SDS011;2901;42.140;24.760;2023-02-28T13:37:32;38.35;;;26.73;;
5752;SDS011;2901;42.140;24.760;2023-02-28T13:47:44;47.80;;;27.33;;
5752;SDS011;2901;42.140;24.760;2023-02-28T13:50:21;37.42;;;28.85;;
5752;SDS011;2901;42.140;24.760;2023-02-28T14:06:30;37.58;;;26.02;;
5752;SDS011;2901;42.140;24.760;2023-02-28T14:11:44;31.88;;;23.48;;
5752;SDS011;2901;42.140;24.760;2023-02-28T14:16:58;33.85;;;23.15;;
5752;SDS011;2901;42.140;24.760;2023-02-28T14:19:27;23.55;;;21.08;;
5752;SDS011;2901;42.140;24.760;2023-02-28T14:27:16;34.03;;;25.05;;
5752;SDS011;2901;42.140;24.760;2023-02-28T14:30:21;30.73;;;22.55;;
5752;SDS011;2901;42.140;24.760;2023-02-28T14:36:06;27.52;;;22.38;;
5752;SDS011;2901;42.140;24.760;2023-02-28T14:38:45;23.90;;;19.83;;
5752;SDS011;2901;42.140;24.760;2023-02-28T14:41:30;24.25;;;20.70;;
5752;SDS011;2901;42.140;24.760;2023-02-28T14:44:01;23.40;;;19.17;;
5752;SDS011;2901;42.140;24.760;2023-02-28T14:46:37;32.67;;;19.88;;
5752;SDS011;2901;42.140;24.760;2023-02-28T14:49:05;26.15;;;21.20;;
5752;SDS011;2901;42.140;24.760;2023-02-28T14:51:37;27.02;;;21.45;;
5752;SDS011;2901;42.140;24.760;2023-02-28T14:54:03;26.23;;;21.50;;
5752;SDS011;2901;42.140;24.760;2023-02-28T14:56:36;28.02;;;21.30;;
5752;SDS011;2901;42.140;24.760;2023-02-28T14:59:03;27.05;;;22.58;;
5752;SDS011;2901;42.140;24.760;2023-02-28T15:01:29;32.05;;;23.35;;
5752;SDS011;2901;42.140;24.760;2023-02-28T15:03:58;26.00;;;21.40;;
5752;SDS011;2901;42.140;24.760;2023-02-28T15:06:29;26.08;;;20.30;;
5752;SDS011;2901;42.140;24.760;2023-02-28T15:09:08;23.92;;;18.70;;
5752;SDS011;2901;42.140;24.760;2023-02-28T15:11:36;24.23;;;18.48;;
5752;SDS011;2901;42.140;24.760;2023-02-28T15:14:03;23.33;;;18.55;;
5752;SDS011;2901;42.140;24.760;2023-02-28T15:16:36;21.38;;;17.70;;
5752;SDS011;2901;42.140;24.760;2023-02-28T15:19:06;24.98;;;18.92;;
5752;SDS011;2901;42.140;24.760;2023-02-28T15:21:51;20.60;;;17.90;;
5752;SDS011;2901;42.140;24.760;2023-02-28T15:24:32;19.90;;;16.95;;
5752;SDS011;2901;42.140;24.760;2023-02-28T15:27:04;22.50;;;15.50;;
5752;SDS011;2901;42.140;24.760;2023-02-28T15:29:45;19.38;;;17.40;;
5752;SDS011;2901;42.140;24.760;2023-02-28T15:32:24;20.95;;;17.23;;
5752;SDS011;2901;42.140;24.760;2023-02-28T15:34:55;24.15;;;21.60;;
5752;SDS011;2901;42.140;24.760;2023-02-28T15:42:42;19.50;;;17.10;;
5752;SDS011;2901;42.140;24.760;2023-02-28T15:48:19;26.30;;;18.60;;
5752;SDS011;2901;42.140;24.760;2023-02-28T15:50:49;57.00;;;32.65;;
5752;SDS011;2901;42.140;24.760;2023-02-28T15:53:43;34.45;;;22.02;;
5752;SDS011;2901;42.140;24.760;2023-02-28T15:59:12;26.30;;;18.70;;
5752;SDS011;2901;42.140;24.760;2023-02-28T16:01:42;28.38;;;17.50;;
5752;SDS011;2901;42.140;24.760;2023-02-28T16:04:15;31.42;;;22.05;;
5752;SDS011;2901;42.140;24.760;2023-02-28T16:06:43;25.17;;;19.30;;
5752;SDS011;2901;42.140;24.760;2023-02-28T16:09:13;25.98;;;19.90;;
5752;SDS011;2901;42.140;24.760;2023-02-28T16:11:44;21.05;;;17.73;;
5752;SDS011;2901;42.140;24.760;2023-02-28T16:14:16;25.90;;;17.40;;
5752;SDS011;2901;42.140;24.760;2023-02-28T16:16:45;27.60;;;17.63;;
5752;SDS011;2901;42.140;24.760;2023-02-28T16:19:12;34.03;;;19.77;;
5752;SDS011;2901;42.140;24.760;2023-02-28T16:21:38;31.95;;;21.35;;
5752;SDS011;2901;42.140;24.760;2023-02-28T16:24:04;29.27;;;21.30;;
5752;SDS011;2901;42.140;24.760;2023-02-28T16:26:30;31.33;;;22.15;;
5752;SDS011;2901;42.140;24.760;2023-02-28T16:28:55;28.75;;;18.45;;
5752;SDS011;2901;42.140;24.760;2023-02-28T16:31:21;23.65;;;16.88;;
5752;SDS011;2901;42.140;24.760;2023-02-28T16:33:46;23.23;;;17.25;;
5752;SDS011;2901;42.140;24.760;2023-02-28T16:36:13;25.35;;;17.88;;
5752;SDS011;2901;42.140;24.760;2023-02-28T16:38:51;22.33;;;16.73;;
5752;SDS011;2901;42.140;24.760;2023-02-28T16:41:24;23.23;;;16.65;;
5752;SDS011;2901;42.140;24.760;2023-02-28T16:43:52;22.85;;;16.50;;
5752;SDS011;2901;42.140;24.760;2023-02-28T16:46:23;22.35;;;17.35;;
5752;SDS011;2901;42.140;24.760;2023-02-28T16:48:50;23.25;;;17.98;;
5752;SDS011;2901;42.140;24.760;2023-02-28T16:51:16;21.25;;;15.85;;
5752;SDS011;2901;42.140;24.760;2023-02-28T16:53:42;18.27;;;15.80;;
5752;SDS011;2901;42.140;24.760;2023-02-28T16:59:00;22.27;;;17.23;;
5752;SDS011;2901;42.140;24.760;2023-02-28T17:01:26;26.27;;;16.92;;
5752;SDS011;2901;42.140;24.760;2023-02-28T17:03:52;20.65;;;15.13;;
5752;SDS011;2901;42.140;24.760;2023-02-28T17:06:23;24.27;;;18.33;;
5752;SDS011;2901;42.140;24.760;2023-02-28T17:08:50;19.92;;;17.42;;
5752;SDS011;2901;42.140;24.760;2023-02-28T17:11:16;29.33;;;22.33;;
5752;SDS011;2901;42.140;24.760;2023-02-28T17:13:42;21.52;;;15.60;;
5752;SDS011;2901;42.140;24.760;2023-02-28T17:18:56;19.30;;;15.48;;
5752;SDS011;2901;42.140;24.760;2023-02-28T17:21:23;17.70;;;14.32;;
5752;SDS011;2901;42.140;24.760;2023-02-28T17:23:49;17.67;;;15.40;;
5752;SDS011;2901;42.140;24.760;2023-02-28T17:26:15;15.77;;;13.90;;
5752;SDS011;2901;42.140;24.760;2023-02-28T17:28:45;15.32;;;13.23;;
5752;SDS011;2901;42.140;24.760;2023-02-28T17:31:11;14.98;;;13.25;;
5752;SDS011;2901;42.140;24.760;2023-02-28T17:33:37;14.52;;;13.18;;
5752;SDS011;2901;42.140;24.760;2023-02-28T17:36:02;14.35;;;12.60;;
5752;SDS011;2901;42.140;24.760;2023-02-28T17:38:28;13.80;;;12.40;;
5752;SDS011;2901;42.140;24.760;2023-02-28T17:40:53;13.90;;;12.50;;
5752;SDS011;2901;42.140;24.760;2023-02-28T17:43:22;10.43;;;9.45;;
5752;SDS011;2901;42.140;24.760;2023-02-28T17:45:49;11.13;;;10.02;;
5752;SDS011;2901;42.140;24.760;2023-02-28T17:48:14;12.07;;;10.82;;
5752;SDS011;2901;42.140;24.760;2023-02-28T17:50:39;16.67;;;15.02;;
5752;SDS011;2901;42.140;24.760;2023-02-28T17:53:05;15.75;;;13.13;;